createdAt,value
2019-03-23T00:07:28.147Z,7.86
2019-03-23T00:12:50.399Z,7.71
2019-03-23T00:15:38.335Z,7.64
2019-03-23T00:18:46.651Z,7.62
2019-03-23T00:24:29.231Z,7.41
2019-03-23T00:26:57.673Z,7.38
2019-03-23T00:29:26.084Z,7.32
2019-03-23T00:31:54.478Z,7.19
2019-03-23T00:34:22.897Z,7.14
2019-03-23T00:36:51.297Z,7.14
2019-03-23T00:39:19.736Z,7.11
2019-03-23T00:41:48.190Z,7.03
2019-03-23T00:44:16.599Z,6.82
2019-03-23T00:46:44.989Z,6.62
2019-03-23T00:49:13.409Z,6.47
2019-03-23T00:51:41.808Z,6.39
2019-03-23T00:54:10.219Z,6.30
2019-03-23T00:56:38.658Z,6.27
2019-03-23T00:59:07.059Z,6.27
2019-03-23T01:01:35.459Z,6.26
2019-03-23T01:06:58.301Z,6.19
2019-03-23T01:09:26.699Z,6.08
2019-03-23T01:11:55.096Z,6.04
2019-03-23T01:14:23.540Z,6.09
2019-03-23T01:16:51.949Z,6.18
2019-03-23T01:19:20.345Z,6.18
2019-03-23T01:24:22.480Z,6.10
2019-03-23T01:29:25.524Z,6.07
2019-03-23T01:31:53.956Z,6.01
2019-03-23T01:34:22.352Z,5.98
2019-03-23T01:36:50.755Z,5.90
2019-03-23T01:39:19.176Z,5.83
2019-03-23T01:41:47.577Z,5.81
2019-03-23T01:44:15.978Z,5.83
2019-03-23T01:46:44.416Z,5.88
2019-03-23T01:49:12.812Z,5.90
2019-03-23T01:51:41.215Z,5.96
2019-03-23T01:54:29.024Z,6.00
2019-03-23T01:56:57.421Z,6.05
2019-03-23T01:59:25.818Z,6.05
2019-03-23T02:01:54.268Z,6.06
2019-03-23T02:04:41.912Z,6.08
2019-03-23T02:07:14.037Z,6.05
2019-03-23T02:09:40.457Z,6.06
2019-03-23T02:12:23.053Z,5.97
2019-03-23T02:17:32.680Z,5.78
2019-03-23T02:22:35.491Z,5.64
2019-03-23T02:25:43.861Z,5.63
2019-03-23T02:28:12.261Z,5.63
2019-03-23T02:31:00.091Z,5.60
2019-03-23T02:33:28.502Z,5.62
2019-03-23T02:35:56.896Z,5.58
2019-03-23T02:38:25.344Z,5.50
2019-03-23T02:40:53.780Z,5.42
2019-03-23T02:48:45.377Z,5.26
2019-03-23T02:51:13.766Z,5.24
2019-03-23T02:53:42.205Z,5.30
2019-03-23T02:56:10.605Z,5.36
2019-03-23T02:58:39.005Z,5.36
2019-03-23T03:03:41.717Z,5.36
2019-03-23T03:08:44.401Z,5.32
2019-03-23T03:11:12.822Z,5.25
2019-03-23T03:13:41.222Z,5.21
2019-03-23T03:16:09.616Z,5.16
2019-03-23T03:18:38.044Z,5.16
2019-03-23T03:21:06.442Z,5.09
2019-03-23T03:23:34.838Z,5.04
2019-03-23T03:28:36.826Z,5.04
2019-03-23T03:31:17.726Z,4.99
2019-03-23T03:33:46.123Z,5.02
2019-03-23T03:36:14.517Z,5.03
2019-03-23T03:38:42.938Z,5.01
2019-03-23T03:41:11.339Z,5.04
2019-03-23T03:46:27.208Z,5.03
2019-03-23T03:48:55.600Z,4.96
2019-03-23T03:51:23.991Z,4.97
2019-03-23T03:56:26.858Z,4.99
2019-03-23T04:01:31.712Z,4.97
2019-03-23T04:04:00.139Z,4.90
2019-03-23T04:06:28.540Z,4.89
2019-03-23T04:08:56.932Z,4.90
2019-03-23T04:11:25.361Z,4.91
2019-03-23T04:13:53.809Z,4.93
2019-03-23T04:16:22.145Z,4.90
2019-03-23T04:18:50.597Z,4.87
2019-03-23T04:21:19.059Z,4.82
2019-03-23T04:23:47.465Z,4.78
2019-03-23T04:26:15.889Z,4.79
2019-03-23T04:28:44.279Z,4.79
2019-03-23T04:31:12.677Z,4.79
2019-03-23T04:33:41.137Z,4.80
2019-03-23T04:36:09.529Z,4.80
2019-03-23T04:38:37.927Z,4.81
2019-03-23T04:41:06.345Z,4.76
2019-03-23T04:43:34.741Z,4.76
2019-03-23T04:46:03.184Z,4.73
2019-03-23T04:48:50.813Z,4.70
2019-03-23T04:51:19.211Z,4.69
2019-03-23T04:54:06.955Z,4.65
2019-03-23T04:59:43.482Z,4.72
2019-03-23T05:02:11.885Z,4.75
2019-03-23T05:04:40.277Z,4.72
2019-03-23T05:07:08.697Z,4.74
2019-03-23T05:09:37.087Z,4.79
2019-03-23T05:12:05.480Z,4.85
2019-03-23T05:17:07.585Z,4.92
2019-03-23T05:22:09.842Z,5.02
2019-03-23T05:27:12.669Z,5.09
2019-03-23T05:29:41.103Z,5.13
2019-03-23T05:32:09.525Z,5.07
2019-03-23T05:34:37.916Z,4.97
2019-03-23T05:39:40.278Z,4.83
2019-03-23T05:42:08.635Z,4.80
2019-03-23T05:47:11.027Z,4.72
2019-03-23T05:49:39.471Z,4.75
2019-03-23T05:52:07.864Z,4.78
2019-03-23T05:54:36.253Z,4.82
2019-03-23T05:57:44.590Z,4.85
2019-03-23T06:00:52.911Z,4.90
2019-03-23T06:05:54.894Z,5.03
2019-03-23T06:08:23.285Z,5.13
2019-03-23T06:10:51.727Z,5.25
2019-03-23T06:13:20.138Z,5.39
2019-03-23T06:15:48.519Z,5.51
2019-03-23T06:18:16.938Z,5.65
2019-03-23T06:20:45.331Z,5.76
2019-03-23T06:23:13.730Z,5.83
2019-03-23T06:25:42.179Z,5.92
2019-03-23T06:28:10.565Z,6.06
2019-03-23T06:30:38.965Z,6.19
2019-03-23T06:33:07.392Z,6.31
2019-03-23T06:35:35.793Z,6.43
2019-03-23T06:38:04.187Z,6.55
2019-03-23T06:40:32.603Z,6.66
2019-03-23T06:43:00.994Z,6.79
2019-03-23T06:45:29.384Z,6.88
2019-03-23T06:50:31.383Z,7.06
2019-03-23T06:55:33.969Z,7.26
2019-03-23T07:00:36.313Z,7.47
2019-03-23T07:03:04.652Z,7.57
2019-03-23T07:05:52.261Z,7.67
2019-03-23T07:08:31.359Z,7.77
2019-03-23T07:10:50.810Z,7.86
2019-03-23T07:13:19.260Z,7.95
2019-03-23T07:15:47.651Z,8.03
2019-03-23T07:18:16.044Z,8.11
2019-03-23T07:26:12.759Z,8.39
2019-03-23T07:28:41.157Z,8.48
2019-03-23T07:31:09.555Z,8.57
2019-03-23T07:33:37.950Z,8.69
2019-03-23T07:38:40.597Z,8.89
2019-03-23T07:43:43.463Z,9.08
2019-03-23T07:46:11.879Z,9.18
2019-03-23T07:48:40.281Z,9.29
2019-03-23T07:51:08.674Z,9.39
2019-03-23T07:56:11.038Z,9.55
2019-03-23T07:58:39.452Z,9.64
2019-03-23T08:01:07.846Z,9.72
2019-03-23T08:03:36.245Z,9.80
2019-03-23T08:08:38.331Z,9.99
2019-03-23T08:11:06.717Z,10.08
2019-03-23T08:13:35.167Z,10.16
2019-03-23T08:16:03.560Z,10.23
2019-03-23T08:18:31.958Z,10.31
2019-03-23T08:21:00.423Z,10.40
2019-03-23T08:23:28.823Z,10.50
2019-03-23T08:25:57.235Z,10.60
2019-03-23T08:30:59.951Z,10.79
2019-03-23T08:36:02.790Z,10.98
2019-03-23T08:41:05.189Z,11.14
2019-03-23T08:43:33.616Z,11.22
2019-03-23T08:46:02.091Z,11.30
2019-03-23T08:48:30.493Z,11.37
2019-03-23T08:50:58.912Z,11.45
2019-03-23T08:53:27.313Z,11.55
2019-03-23T08:55:55.713Z,11.68
2019-03-23T08:58:42.867Z,11.81
2019-03-23T09:01:11.263Z,11.94
2019-03-23T09:03:39.666Z,12.06
2019-03-23T09:06:08.093Z,12.16
2019-03-23T09:08:36.479Z,12.21
2019-03-23T09:11:04.880Z,12.32
2019-03-23T09:13:40.674Z,12.43
2019-03-23T09:16:03.460Z,12.53
2019-03-23T09:18:31.857Z,12.64
2019-03-23T09:23:34.223Z,12.90
2019-03-23T09:26:02.647Z,12.96
2019-03-23T09:28:31.052Z,13.05
2019-03-23T09:30:59.447Z,13.17
2019-03-23T09:36:01.693Z,13.36
2019-03-23T09:38:30.132Z,13.45
2019-03-23T09:40:58.531Z,13.56
2019-03-23T09:43:26.927Z,13.66
2019-03-23T09:45:55.343Z,13.74
2019-03-23T09:48:23.741Z,13.82
2019-03-23T09:50:52.134Z,13.94
2019-03-23T09:53:20.552Z,14.05
2019-03-23T09:55:48.964Z,14.15
2019-03-23T09:58:17.376Z,14.24
2019-03-23T10:00:45.788Z,14.33
2019-03-23T10:03:14.185Z,14.43
2019-03-23T10:05:42.593Z,14.53
2019-03-23T10:10:45.338Z,14.71
2019-03-23T10:13:33.428Z,14.84
2019-03-23T10:16:01.829Z,14.95
2019-03-23T10:18:30.237Z,15.02
2019-03-23T10:23:32.210Z,15.17
2019-03-23T10:26:00.621Z,15.26
2019-03-23T10:31:02.546Z,15.49
2019-03-23T10:36:24.142Z,15.70
2019-03-23T10:39:33.088Z,15.82
2019-03-23T10:42:01.490Z,15.86
2019-03-23T10:44:29.898Z,15.93
2019-03-23T10:49:32.562Z,16.03
2019-03-23T10:52:00.976Z,16.08
2019-03-23T10:54:29.378Z,16.19
2019-03-23T10:56:57.783Z,16.33
2019-03-23T11:02:00.144Z,16.53
2019-03-23T11:04:28.648Z,16.64
2019-03-23T11:06:57.029Z,16.74
2019-03-23T11:09:25.432Z,16.84
2019-03-23T11:11:53.856Z,16.92
2019-03-23T11:14:22.258Z,17.01
2019-03-23T11:16:50.666Z,17.16
2019-03-23T11:21:52.594Z,17.39
2019-03-23T11:24:21.034Z,17.49
2019-03-23T11:26:49.432Z,17.60
2019-03-23T11:29:17.840Z,17.63
2019-03-23T11:31:46.286Z,17.71
2019-03-23T11:34:18.020Z,17.80
2019-03-23T11:36:44.833Z,17.94
2019-03-23T11:41:47.176Z,18.03
2019-03-23T11:44:15.574Z,18.04
2019-03-23T11:49:18.423Z,18.29
2019-03-23T11:51:46.887Z,18.41
2019-03-23T11:54:15.360Z,18.46
2019-03-23T11:56:43.762Z,18.54
2019-03-23T12:01:51.695Z,18.78
2019-03-23T12:04:16.179Z,18.95
2019-03-23T12:06:44.594Z,19.09
2019-03-23T12:09:12.998Z,19.18
2019-03-23T12:11:41.700Z,19.23
2019-03-23T12:14:10.099Z,19.24
2019-03-23T12:16:38.498Z,19.38
2019-03-23T12:19:06.922Z,19.46
2019-03-23T12:21:35.327Z,19.52
2019-03-23T12:24:03.814Z,19.59
2019-03-23T12:26:32.386Z,19.71
2019-03-23T12:29:00.816Z,19.80
2019-03-23T12:31:29.286Z,19.83
2019-03-23T12:33:57.706Z,19.84
2019-03-23T12:36:26.119Z,19.89
2019-03-23T12:38:54.528Z,19.93
2019-03-23T12:41:23.607Z,19.95
2019-03-23T12:43:52.047Z,19.98
2019-03-23T12:46:20.449Z,20.03
2019-03-23T12:48:49.021Z,20.17
2019-03-23T12:51:17.431Z,20.22
2019-03-23T12:53:45.839Z,20.26
2019-03-23T12:56:14.277Z,20.35
2019-03-23T12:58:42.687Z,20.41
2019-03-23T13:01:11.331Z,20.50
2019-03-23T13:03:39.723Z,20.62
2019-03-23T13:06:08.131Z,20.79
2019-03-23T13:08:36.537Z,20.94
2019-03-23T13:11:04.963Z,21.06
2019-03-23T13:13:33.379Z,21.15
2019-03-23T13:16:01.796Z,21.21
2019-03-23T13:18:30.223Z,21.32
2019-03-23T13:20:58.632Z,21.39
2019-03-23T13:23:27.046Z,21.41
2019-03-23T13:25:55.471Z,21.40
2019-03-23T13:28:23.879Z,21.45
2019-03-23T13:30:52.357Z,21.47
2019-03-23T13:33:21.043Z,21.47
2019-03-23T13:35:49.455Z,21.49
2019-03-23T13:38:17.867Z,21.54
2019-03-23T13:40:46.501Z,21.64
2019-03-23T13:43:14.911Z,21.67
2019-03-23T13:45:43.327Z,21.75
2019-03-23T13:48:11.762Z,21.85
2019-03-23T13:50:40.235Z,21.86
2019-03-23T13:53:08.643Z,21.87
2019-03-23T13:55:37.079Z,21.89
2019-03-23T13:58:10.132Z,22.00
2019-03-23T14:00:38.549Z,22.03
2019-03-23T14:03:08.019Z,22.07
2019-03-23T14:05:37.503Z,22.01
2019-03-23T14:08:06.055Z,21.96
2019-03-23T14:10:34.493Z,21.92
2019-03-23T14:13:02.910Z,21.85
2019-03-23T14:15:31.323Z,21.83
2019-03-23T14:17:59.942Z,21.76
2019-03-23T14:20:28.347Z,21.72
2019-03-23T14:23:02.663Z,21.74
2019-03-23T14:25:27.335Z,21.77
2019-03-23T14:27:55.773Z,21.80
2019-03-23T14:30:24.179Z,21.73
2019-03-23T14:32:52.938Z,21.72
2019-03-23T14:35:21.341Z,21.73
2019-03-23T14:37:49.756Z,21.75
2019-03-23T14:40:18.328Z,21.68
2019-03-23T14:42:46.799Z,21.63
2019-03-23T14:45:15.199Z,21.65
2019-03-23T14:47:43.619Z,21.71
2019-03-23T14:50:12.092Z,21.74
2019-03-23T14:52:40.503Z,21.76
2019-03-23T14:55:09.200Z,21.69
2019-03-23T14:57:37.607Z,21.71
2019-03-23T15:00:09.061Z,21.67
2019-03-23T15:02:37.931Z,21.60
2019-03-23T15:05:07.869Z,21.62
2019-03-23T15:07:36.344Z,21.63
2019-03-23T15:10:08.077Z,21.65
2019-03-23T15:12:36.483Z,21.62
2019-03-23T15:15:06.931Z,21.56
2019-03-23T15:17:36.499Z,21.55
2019-03-23T15:20:06.846Z,21.53
2019-03-23T15:22:36.908Z,21.56
2019-03-23T15:25:07.147Z,21.59
2019-03-23T15:27:35.583Z,21.63
2019-03-23T15:30:07.273Z,21.65
2019-03-23T15:32:35.868Z,21.63
2019-03-23T15:35:08.710Z,21.58
2019-03-23T15:37:37.117Z,21.53
2019-03-23T15:40:07.967Z,21.52
2019-03-23T15:42:36.525Z,21.49
2019-03-23T15:45:07.335Z,21.43
2019-03-23T15:47:35.780Z,21.34
2019-03-23T15:50:06.765Z,21.28
2019-03-23T15:52:35.230Z,21.24
2019-03-23T15:55:04.781Z,21.22
2019-03-23T15:57:33.179Z,21.18
2019-03-23T16:00:01.595Z,21.13
2019-03-23T16:02:30.026Z,21.08
2019-03-23T16:04:58.442Z,21.01
2019-03-23T16:07:29.787Z,20.96
2019-03-23T16:09:57.121Z,20.86
2019-03-23T16:12:34.460Z,20.80
2019-03-23T16:14:55.646Z,20.71
2019-03-23T16:17:24.112Z,20.63
2019-03-23T16:19:52.568Z,20.54
2019-03-23T16:22:21.140Z,20.45
2019-03-23T16:24:49.610Z,20.37
2019-03-23T16:27:18.027Z,20.30
2019-03-23T16:29:46.425Z,20.19
2019-03-23T16:32:14.860Z,20.10
2019-03-23T16:34:43.273Z,20.04
2019-03-23T16:37:11.684Z,19.97
2019-03-23T16:39:40.121Z,19.90
2019-03-23T16:42:08.520Z,19.85
2019-03-23T16:44:36.936Z,19.78
2019-03-23T16:47:05.424Z,19.72
2019-03-23T16:49:33.839Z,19.63
2019-03-23T16:52:02.248Z,19.55
2019-03-23T16:54:30.717Z,19.50
2019-03-23T16:56:59.121Z,19.40
2019-03-23T16:59:27.523Z,19.26
2019-03-23T17:01:56.329Z,19.15
2019-03-23T17:04:24.742Z,19.03
2019-03-23T17:06:53.151Z,18.94
2019-03-23T17:09:21.665Z,18.84
2019-03-23T17:11:50.095Z,18.73
2019-03-23T17:14:18.495Z,18.63
2019-03-23T17:16:47.009Z,18.54
2019-03-23T17:19:15.419Z,18.44
2019-03-23T17:21:43.828Z,18.36
2019-03-23T17:24:12.465Z,18.26
2019-03-23T17:26:40.865Z,18.17
2019-03-23T17:29:09.271Z,18.08
2019-03-23T17:31:37.697Z,17.97
2019-03-23T17:34:06.158Z,17.85
2019-03-23T17:36:34.563Z,17.75
2019-03-23T17:39:04.881Z,17.64
2019-03-23T17:41:33.286Z,17.53
2019-03-23T17:44:01.752Z,17.45
2019-03-23T17:46:30.156Z,17.37
2019-03-23T17:48:58.560Z,17.30
2019-03-23T17:51:26.967Z,17.23
2019-03-23T17:53:58.881Z,17.15
2019-03-23T17:56:25.702Z,17.07
2019-03-23T17:58:54.169Z,17.01
2019-03-23T18:01:22.648Z,16.96
2019-03-23T18:03:51.059Z,16.89
2019-03-23T18:06:19.503Z,16.80
2019-03-23T18:08:48.009Z,16.67
2019-03-23T18:11:16.507Z,16.46
2019-03-23T18:13:44.918Z,16.26
2019-03-23T18:16:13.376Z,16.03
2019-03-23T18:18:44.301Z,15.87
2019-03-23T18:21:12.717Z,15.68
2019-03-23T18:23:41.164Z,15.54
2019-03-23T18:26:09.787Z,15.45
2019-03-23T18:28:38.197Z,15.40
2019-03-23T18:31:07.077Z,15.36
2019-03-23T18:33:35.487Z,15.37
2019-03-23T18:36:04.168Z,15.34
2019-03-23T18:38:33.034Z,15.30
2019-03-23T18:41:01.444Z,15.22
2019-03-23T18:43:29.859Z,15.18
2019-03-23T18:45:58.298Z,15.15
2019-03-23T18:48:26.703Z,15.10
2019-03-23T18:50:55.183Z,14.98
2019-03-23T18:53:24.158Z,14.77
2019-03-23T18:55:52.771Z,14.62
2019-03-23T18:58:21.172Z,14.51
2019-03-23T19:00:49.615Z,14.47
2019-03-23T19:03:18.041Z,14.49
2019-03-23T19:05:46.450Z,14.46
2019-03-23T19:08:14.953Z,14.35
2019-03-23T19:10:43.438Z,14.26
2019-03-23T19:13:11.911Z,14.21
2019-03-23T19:15:40.547Z,14.19
2019-03-23T19:18:09.127Z,14.23
2019-03-23T19:20:37.543Z,14.18
2019-03-23T19:23:06.193Z,14.08
2019-03-23T19:25:36.531Z,14.07
2019-03-23T19:28:05.675Z,14.04
2019-03-23T19:30:34.305Z,13.87
2019-03-23T19:33:02.713Z,13.80
2019-03-23T19:35:31.113Z,13.71
2019-03-23T19:37:59.946Z,13.64
2019-03-23T19:40:28.352Z,13.58
2019-03-23T19:42:56.752Z,13.48
2019-03-23T19:45:25.597Z,13.43
2019-03-23T19:47:54.019Z,13.46
2019-03-23T19:50:22.419Z,13.52
2019-03-23T19:52:50.845Z,13.49
2019-03-23T19:55:19.327Z,13.44
2019-03-23T19:57:47.745Z,13.39
2019-03-23T20:00:18.341Z,13.35
2019-03-23T20:02:46.753Z,13.29
2019-03-23T20:05:15.319Z,13.26
2019-03-23T20:07:43.759Z,13.24
2019-03-23T20:10:12.608Z,13.21
2019-03-23T20:12:41.015Z,13.16
2019-03-23T20:15:10.083Z,13.10
2019-03-23T20:17:38.841Z,13.05
2019-03-23T20:20:08.791Z,13.03
2019-03-23T20:22:37.691Z,12.93
2019-03-23T20:25:09.569Z,12.72
2019-03-23T20:27:37.976Z,12.57
2019-03-23T20:30:14.339Z,12.47
2019-03-23T20:32:42.746Z,12.46
2019-03-23T20:35:11.686Z,12.50
2019-03-23T20:37:40.295Z,12.52
2019-03-23T20:40:09.229Z,12.54
2019-03-23T20:42:37.707Z,12.48
2019-03-23T20:45:08.489Z,12.40
2019-03-23T20:47:39.381Z,12.36
2019-03-23T20:50:10.104Z,12.35
2019-03-23T20:52:38.621Z,12.32
2019-03-23T20:55:12.899Z,12.29
2019-03-23T20:57:41.307Z,12.23
2019-03-23T21:00:09.931Z,12.18
2019-03-23T21:02:38.341Z,12.11
2019-03-23T21:05:07.081Z,12.01
2019-03-23T21:07:35.524Z,11.90
2019-03-23T21:10:04.866Z,11.77
2019-03-23T21:12:33.274Z,11.72
2019-03-23T21:15:02.141Z,11.69
2019-03-23T21:17:30.547Z,11.63
2019-03-23T21:19:58.951Z,11.58
2019-03-23T21:22:27.578Z,11.52
2019-03-23T21:24:55.978Z,11.49
2019-03-23T21:27:24.387Z,11.43
2019-03-23T21:29:52.806Z,11.41
2019-03-23T21:32:24.010Z,11.36
2019-03-23T21:34:52.415Z,11.31
2019-03-23T21:37:21.027Z,11.27
2019-03-23T21:39:49.439Z,11.22
2019-03-23T21:42:17.847Z,11.17
2019-03-23T21:44:46.275Z,11.17
2019-03-23T21:47:14.738Z,11.16
2019-03-23T21:49:43.144Z,11.11
2019-03-23T21:52:11.575Z,11.10
2019-03-23T21:54:39.992Z,11.10
2019-03-23T21:57:08.391Z,11.06
2019-03-23T21:59:36.827Z,10.99
2019-03-23T22:02:05.296Z,10.92
2019-03-23T22:04:33.688Z,10.84
2019-03-23T22:07:02.506Z,10.80
2019-03-23T22:09:30.979Z,10.75
2019-03-23T22:11:59.394Z,10.70
2019-03-23T22:14:27.931Z,10.63
2019-03-23T22:16:56.339Z,10.59
2019-03-23T22:19:24.747Z,10.54
2019-03-23T22:21:53.330Z,10.47
2019-03-23T22:24:21.731Z,10.44
2019-03-23T22:26:50.141Z,10.43
2019-03-23T22:29:18.915Z,10.35
2019-03-23T22:31:47.315Z,10.31
2019-03-23T22:34:15.724Z,10.31
2019-03-23T22:36:44.167Z,10.33
2019-03-23T22:39:12.581Z,10.36
2019-03-23T22:41:40.995Z,10.36
2019-03-23T22:44:09.554Z,10.37
2019-03-23T22:46:37.957Z,10.33
2019-03-23T22:49:06.364Z,10.28
2019-03-23T22:51:34.795Z,10.20
2019-03-23T22:54:03.228Z,10.13
2019-03-23T22:56:31.628Z,10.05
2019-03-23T22:59:00.054Z,10.02
2019-03-23T23:01:28.453Z,9.98
2019-03-23T23:03:56.857Z,9.98
2019-03-23T23:06:25.286Z,9.97
2019-03-23T23:08:53.686Z,9.93
2019-03-23T23:11:22.087Z,9.98
2019-03-23T23:13:50.650Z,10.00
2019-03-23T23:16:19.082Z,10.04
2019-03-23T23:18:47.490Z,10.07
2019-03-23T23:21:16.089Z,9.99
2019-03-23T23:23:44.490Z,9.91
2019-03-23T23:26:12.899Z,9.86
2019-03-23T23:28:41.334Z,9.82
2019-03-23T23:31:09.732Z,9.81
2019-03-23T23:33:38.142Z,9.78
2019-03-23T23:36:06.956Z,9.76
2019-03-23T23:38:35.350Z,9.75
2019-03-23T23:41:03.751Z,9.76
2019-03-23T23:43:32.240Z,9.74
2019-03-23T23:46:00.644Z,9.71
2019-03-23T23:48:29.053Z,9.68
2019-03-23T23:50:57.624Z,9.66
2019-03-23T23:53:26.020Z,9.66
2019-03-23T23:55:54.435Z,9.63
2019-03-23T23:58:23.100Z,9.58
